Time;durP1;ratioP1;P1;durP2;ratioP2;P2;SDS_P1;SDS_P2;PMS_P1;PMS_P2;Temp;Humidity;BMP_temperature;BMP_pressure;BME280_temperature;BME280_humidity;BME280_pressure;Samples;Min_cycle;Max_cycle;Signal;HPM_P1;HPM_P2
2019/08/04 00:02:10;;;;;;;3.31;3.01;;;;;;;23.29;55.22;100598.86;;;;-57
2019/08/04 00:05:10;;;;;;;3.23;2.97;;;;;;;23.29;55.22;100597.58;;;;-58
2019/08/04 00:08:10;;;;;;;3.65;3.11;;;;;;;23.29;55.26;100598.22;;;;-58
2019/08/04 00:11:10;;;;;;;3.51;3.16;;;;;;;23.28;55.25;100596.36;;;;-58
2019/08/04 00:14:10;;;;;;;3.73;3.43;;;;;;;23.28;55.21;100595.79;;;;-58
2019/08/04 00:17:10;;;;;;;3.41;3.03;;;;;;;23.28;55.23;100596.97;;;;-57
2019/08/04 00:20:10;;;;;;;3.39;3.09;;;;;;;23.28;55.24;100598.22;;;;-58
2019/08/04 00:23:10;;;;;;;3.33;2.99;;;;;;;23.27;55.22;100596.50;;;;-58
2019/08/04 00:26:10;;;;;;;3.33;3.05;;;;;;;23.27;55.24;100596.16;;;;-58
2019/08/04 00:29:10;;;;;;;3.72;3.40;;;;;;;23.27;55.22;100595.89;;;;-58
2019/08/04 00:32:10;;;;;;;3.67;3.00;;;;;;;23.27;55.25;100592.09;;;;-58
2019/08/04 00:35:10;;;;;;;3.43;3.13;;;;;;;23.27;55.23;100594.55;;;;-58
2019/08/04 00:38:10;;;;;;;4.15;3.25;;;;;;;23.25;55.25;100583.36;;;;-58
2019/08/04 00:41:10;;;;;;;3.45;3.15;;;;;;;23.26;55.24;100585.92;;;;-58
2019/08/04 00:44:10;;;;;;;3.32;3.10;;;;;;;23.24;55.28;100578.88;;;;-57
2019/08/04 00:47:10;;;;;;;3.46;3.10;;;;;;;23.26;55.22;100582.14;;;;-58
2019/08/04 00:50:10;;;;;;;3.36;3.07;;;;;;;23.25;55.25;100579.83;;;;-58
2019/08/04 00:53:10;;;;;;;3.66;3.36;;;;;;;23.25;55.25;100582.69;;;;-58
2019/08/04 00:56:10;;;;;;;3.57;3.27;;;;;;;23.24;55.26;100585.52;;;;-57
2019/08/04 00:59:10;;;;;;;3.69;3.35;;;;;;;23.24;55.29;100588.05;;;;-57
2019/08/04 01:02:10;;;;;;;3.48;3.19;;;;;;;23.24;55.27;100582.25;;;;-58
2019/08/04 01:05:10;;;;;;;3.40;3.10;;;;;;;23.24;55.25;100586.88;;;;-58
2019/08/04 01:08:10;;;;;;;3.43;3.13;;;;;;;23.24;55.22;100592.53;;;;-58
2019/08/04 01:11:10;;;;;;;3.57;3.27;;;;;;;23.23;55.27;100591.32;;;;-57
2019/08/04 01:14:10;;;;;;;3.44;3.14;;;;;;;23.23;55.25;100590.81;;;;-58
2019/08/04 01:17:10;;;;;;;3.43;3.19;;;;;;;23.23;55.24;100591.32;;;;-57
2019/08/04 01:20:15;;;;;;;3.40;3.10;;;;;;;23.23;55.23;100594.26;;;;-58
2019/08/04 01:23:10;;;;;;;3.37;3.07;;;;;;;23.22;55.24;100594.66;;;;-58
2019/08/04 01:26:10;;;;;;;3.77;3.19;;;;;;;23.22;55.22;100597.93;;;;-58
2019/08/04 01:29:10;;;;;;;6.89;3.26;;;;;;;23.21;55.21;100597.33;;;;-51
2019/08/04 01:32:10;;;;;;;3.63;3.19;;;;;;;23.21;55.23;100599.34;;;;-58
2019/08/04 01:35:10;;;;;;;3.60;3.30;;;;;;;23.21;55.23;100596.82;;;;-57
2019/08/04 01:38:10;;;;;;;3.47;3.17;;;;;;;23.21;55.24;100595.54;;;;-57
2019/08/04 01:41:10;;;;;;;3.68;3.38;;;;;;;23.21;55.25;100586.61;;;;-59
2019/08/04 01:44:10;;;;;;;3.62;3.32;;;;;;;23.20;55.25;100588.70;;;;-57
2019/08/04 01:47:10;;;;;;;4.83;3.22;;;;;;;23.20;55.28;100593.75;;;;-58
2019/08/04 01:50:10;;;;;;;3.44;3.17;;;;;;;23.20;55.21;100592.58;;;;-57
2019/08/04 01:53:10;;;;;;;3.48;3.18;;;;;;;23.20;55.26;100596.45;;;;-57
2019/08/04 01:56:10;;;;;;;3.39;3.14;;;;;;;23.19;55.24;100594.73;;;;-50
2019/08/04 01:59:10;;;;;;;3.54;3.24;;;;;;;23.19;55.25;100597.94;;;;-51
2019/08/04 02:02:10;;;;;;;3.51;3.21;;;;;;;23.19;55.26;100594.30;;;;-51
2019/08/04 02:05:10;;;;;;;3.55;3.25;;;;;;;23.18;55.24;100596.55;;;;-57
2019/08/04 02:08:10;;;;;;;3.53;3.25;;;;;;;23.18;55.27;100599.59;;;;-57
2019/08/04 02:11:10;;;;;;;3.45;3.17;;;;;;;23.18;55.26;100595.78;;;;-57
2019/08/04 02:14:10;;;;;;;3.45;3.15;;;;;;;23.18;55.24;100595.72;;;;-57
2019/08/04 02:17:10;;;;;;;3.55;3.12;;;;;;;23.18;55.25;100598.92;;;;-51
2019/08/04 02:20:10;;;;;;;3.62;3.32;;;;;;;23.18;55.25;100601.34;;;;-58
2019/08/04 02:23:10;;;;;;;3.46;3.21;;;;;;;23.17;55.26;100597.97;;;;-57
2019/08/04 02:26:10;;;;;;;3.39;3.09;;;;;;;23.16;55.27;100596.33;;;;-57
2019/08/04 02:29:10;;;;;;;3.81;3.44;;;;;;;23.17;55.26;100601.58;;;;-51
2019/08/04 02:32:10;;;;;;;3.87;3.20;;;;;;;23.17;55.26;100598.55;;;;-52
2019/08/04 02:35:10;;;;;;;3.45;3.15;;;;;;;23.17;55.25;100596.19;;;;-52
2019/08/04 02:38:10;;;;;;;3.60;3.30;;;;;;;23.16;55.20;100587.83;;;;-51
2019/08/04 02:41:10;;;;;;;3.45;3.15;;;;;;;23.16;55.25;100587.73;;;;-58
2019/08/04 02:44:18;;;;;;;3.48;3.18;;;;;;;23.16;55.21;100587.05;;;;-57
2019/08/04 02:47:23;;;;;;;3.67;3.37;;;;;;;23.15;55.23;100586.63;;;;-57
2019/08/04 02:50:10;;;;;;;3.54;3.24;;;;;;;23.16;55.21;100588.23;;;;-57
2019/08/04 02:53:10;;;;;;;3.45;3.11;;;;;;;23.15;55.24;100587.20;;;;-57
2019/08/04 02:56:10;;;;;;;3.56;3.26;;;;;;;23.15;55.22;100586.19;;;;-52
2019/08/04 02:59:10;;;;;;;3.70;3.17;;;;;;;23.15;55.21;100582.38;;;;-51
2019/08/04 03:02:10;;;;;;;3.54;3.24;;;;;;;23.14;55.21;100577.73;;;;-50
2019/08/04 03:05:10;;;;;;;3.31;3.09;;;;;;;23.14;55.25;100581.20;;;;-51
2019/08/04 03:08:10;;;;;;;3.60;3.30;;;;;;;23.14;55.27;100583.89;;;;-57
2019/08/04 03:11:10;;;;;;;3.61;3.31;;;;;;;23.14;55.29;100583.70;;;;-58
2019/08/04 03:14:10;;;;;;;3.43;3.15;;;;;;;23.14;55.28;100585.88;;;;-51
2019/08/04 03:17:10;;;;;;;3.39;3.19;;;;;;;23.13;55.22;100589.16;;;;-58
2019/08/04 03:20:10;;;;;;;3.74;3.44;;;;;;;23.14;55.22;100589.76;;;;-50
2019/08/04 03:23:10;;;;;;;3.53;3.26;;;;;;;23.13;55.18;100591.52;;;;-57
2019/08/04 03:26:10;;;;;;;3.45;3.15;;;;;;;23.12;55.25;100590.47;;;;-51
2019/08/04 03:29:10;;;;;;;3.47;3.20;;;;;;;23.12;55.25;100594.84;;;;-51
2019/08/04 03:32:10;;;;;;;3.51;3.21;;;;;;;23.12;55.25;100593.16;;;;-51
2019/08/04 03:35:10;;;;;;;3.50;3.20;;;;;;;23.12;55.24;100591.48;;;;-52
2019/08/04 03:38:10;;;;;;;3.43;3.18;;;;;;;23.12;55.26;100593.67;;;;-57
2019/08/04 03:41:10;;;;;;;3.35;3.10;;;;;;;23.12;55.23;100592.42;;;;-51
2019/08/04 03:47:15;;;;;;;3.60;3.30;;;;;;;23.11;55.24;100592.39;;;;-58
2019/08/04 03:53:16;;;;;;;3.47;3.17;;;;;;;23.11;55.20;100589.26;;;;-57
2019/08/04 03:56:10;;;;;;;3.49;3.25;;;;;;;23.11;55.26;100588.99;;;;-57
2019/08/04 03:59:10;;;;;;;3.62;3.32;;;;;;;23.10;55.24;100590.58;;;;-51
2019/08/04 04:02:40;;;;;;;3.34;3.12;;;;;;;23.11;55.22;100588.99;;;;-57
2019/08/04 04:05:10;;;;;;;3.40;3.04;;;;;;;23.10;55.22;100592.42;;;;-58
2019/08/04 04:08:10;;;;;;;3.60;3.30;;;;;;;23.10;55.20;100589.56;;;;-51
2019/08/04 04:11:10;;;;;;;3.41;3.11;;;;;;;23.10;55.22;100594.45;;;;-51
2019/08/04 04:14:10;;;;;;;3.53;3.23;;;;;;;23.10;55.24;100590.06;;;;-57
2019/08/04 04:17:10;;;;;;;3.85;3.55;;;;;;;23.09;55.23;100595.46;;;;-58
2019/08/04 04:20:10;;;;;;;3.39;3.19;;;;;;;23.10;55.21;100597.89;;;;-58
2019/08/04 04:23:10;;;;;;;3.68;3.38;;;;;;;23.09;55.21;100598.06;;;;-51
2019/08/04 04:26:10;;;;;;;3.61;3.31;;;;;;;23.10;55.16;100606.31;;;;-51
2019/08/04 04:29:10;;;;;;;3.61;3.31;;;;;;;23.10;55.25;100608.20;;;;-57
2019/08/04 04:32:10;;;;;;;3.25;3.05;;;;;;;23.09;55.16;100610.86;;;;-50
2019/08/04 04:35:10;;;;;;;3.59;3.29;;;;;;;23.09;55.22;100613.48;;;;-51
2019/08/04 04:38:10;;;;;;;3.87;3.57;;;;;;;23.08;55.22;100613.29;;;;-51
2019/08/04 04:41:10;;;;;;;3.49;3.19;;;;;;;23.09;55.21;100615.38;;;;-58
2019/08/04 04:44:10;;;;;;;3.21;3.01;;;;;;;23.08;55.19;100615.11;;;;-51
2019/08/04 04:47:10;;;;;;;3.72;3.42;;;;;;;23.08;55.20;100618.04;;;;-60
2019/08/04 04:50:10;;;;;;;8.47;7.45;;;;;;;22.42;52.81;100616.29;;;;-59
2019/08/04 04:53:10;;;;;;;8.73;7.65;;;;;;;22.15;53.46;100618.19;;;;-60
2019/08/04 04:56:10;;;;;;;8.60;7.81;;;;;;;21.89;54.22;100618.34;;;;-60
2019/08/04 04:59:10;;;;;;;8.62;7.69;;;;;;;21.71;54.74;100619.02;;;;-59
2019/08/04 05:02:10;;;;;;;8.54;7.79;;;;;;;21.59;55.01;100617.05;;;;-60
2019/08/04 05:05:10;;;;;;;9.20;8.29;;;;;;;21.41;55.36;100615.44;;;;-60
2019/08/04 05:08:10;;;;;;;8.85;7.99;;;;;;;21.27;55.77;100617.73;;;;-59
2019/08/04 05:11:10;;;;;;;8.75;8.01;;;;;;;21.15;56.17;100618.20;;;;-53
2019/08/04 05:14:10;;;;;;;8.96;8.16;;;;;;;20.98;56.69;100620.47;;;;-53
2019/08/04 05:17:10;;;;;;;9.09;8.15;;;;;;;21.02;56.77;100623.25;;;;-53
2019/08/04 05:20:10;;;;;;;8.73;7.93;;;;;;;20.91;57.03;100627.91;;;;-52
2019/08/04 05:23:10;;;;;;;8.99;8.19;;;;;;;20.88;57.21;100629.30;;;;-60
2019/08/04 05:26:10;;;;;;;8.93;8.05;;;;;;;20.81;57.53;100635.41;;;;-60
2019/08/04 05:29:10;;;;;;;9.51;8.42;;;;;;;20.82;57.59;100640.02;;;;-60
2019/08/04 05:32:10;;;;;;;9.37;8.45;;;;;;;20.86;57.61;100642.51;;;;-60
2019/08/04 05:35:10;;;;;;;9.32;8.42;;;;;;;20.85;57.73;100639.30;;;;-60
2019/08/04 05:38:10;;;;;;;9.21;8.41;;;;;;;20.79;57.99;100641.91;;;;-60
2019/08/04 05:41:10;;;;;;;8.77;7.97;;;;;;;20.82;57.81;100635.66;;;;-53
2019/08/04 05:44:10;;;;;;;8.97;7.81;;;;;;;20.79;57.90;100634.80;;;;-53
2019/08/04 05:47:10;;;;;;;9.11;8.36;;;;;;;20.83;58.17;100636.17;;;;-54
2019/08/04 05:50:10;;;;;;;9.01;8.11;;;;;;;20.85;58.55;100634.77;;;;-60
2019/08/04 05:53:10;;;;;;;9.28;8.48;;;;;;;20.85;58.60;100636.89;;;;-54
2019/08/04 05:56:10;;;;;;;9.25;8.27;;;;;;;20.89;58.23;100637.12;;;;-54
2019/08/04 05:59:09;;;;;;;9.80;8.87;;;;;;;20.91;57.89;100641.44;;;;-54
2019/08/04 06:02:10;;;;;;;10.14;9.14;;;;;;;20.92;57.93;100640.64;;;;-60
2019/08/04 06:05:10;;;;;;;10.25;9.22;;;;;;;20.95;58.14;100642.74;;;;-54
2019/08/04 06:08:10;;;;;;;10.28;9.27;;;;;;;20.94;58.18;100640.45;;;;-54
2019/08/04 06:11:10;;;;;;;11.73;10.61;;;;;;;20.96;58.04;100640.09;;;;-52
2019/08/04 06:14:10;;;;;;;11.42;10.32;;;;;;;20.91;58.34;100644.36;;;;-54
2019/08/04 06:17:10;;;;;;;12.72;11.49;;;;;;;20.99;58.13;100639.98;;;;-60
2019/08/04 06:20:10;;;;;;;13.07;11.43;;;;;;;20.99;57.88;100647.20;;;;-53
2019/08/04 06:23:10;;;;;;;13.12;11.44;;;;;;;21.03;57.92;100646.36;;;;-58
2019/08/04 06:26:10;;;;;;;11.33;10.22;;;;;;;21.04;57.69;100649.70;;;;-58
2019/08/04 06:29:10;;;;;;;11.64;10.46;;;;;;;21.09;57.83;100650.98;;;;-51
2019/08/04 06:32:10;;;;;;;11.77;9.95;;;;;;;21.17;57.61;100647.44;;;;-51
2019/08/04 06:35:10;;;;;;;10.43;9.23;;;;;;;21.24;57.25;100650.71;;;;-52
2019/08/04 06:38:10;;;;;;;9.37;8.48;;;;;;;21.26;57.27;100644.91;;;;-58
2019/08/04 06:41:10;;;;;;;9.69;8.79;;;;;;;21.28;57.09;100641.97;;;;-51
2019/08/04 06:44:10;;;;;;;9.78;8.77;;;;;;;21.34;56.96;100642.28;;;;-51
2019/08/04 06:47:10;;;;;;;9.21;8.31;;;;;;;21.37;57.14;100644.14;;;;-58
2019/08/04 06:50:10;;;;;;;9.08;8.18;;;;;;;21.40;57.05;100639.22;;;;-58
2019/08/04 06:53:10;;;;;;;9.61;7.83;;;;;;;21.43;56.72;100640.89;;;;-57
2019/08/04 06:56:09;;;;;;;8.43;7.62;;;;;;;21.45;56.66;100641.09;;;;-58
2019/08/04 06:59:10;;;;;;;8.51;7.70;;;;;;;21.47;56.90;100641.78;;;;-58
2019/08/04 07:02:10;;;;;;;8.37;7.37;;;;;;;21.52;56.83;100639.97;;;;-58
2019/08/04 07:05:10;;;;;;;8.12;7.29;;;;;;;21.55;56.93;100643.61;;;;-57
2019/08/04 07:08:10;;;;;;;7.89;7.09;;;;;;;21.56;56.92;100646.51;;;;-58
2019/08/04 07:11:10;;;;;;;8.84;7.47;;;;;;;21.60;56.83;100640.78;;;;-58
2019/08/04 07:14:10;;;;;;;7.49;6.81;;;;;;;21.62;56.80;100643.72;;;;-58
2019/08/04 07:17:10;;;;;;;7.53;6.83;;;;;;;21.63;56.62;100639.89;;;;-51
2019/08/04 07:20:10;;;;;;;7.37;6.71;;;;;;;21.66;56.54;100641.34;;;;-50
2019/08/04 07:23:10;;;;;;;7.30;6.57;;;;;;;21.69;56.51;100637.02;;;;-58
2019/08/04 07:26:10;;;;;;;7.95;6.78;;;;;;;21.70;56.56;100633.80;;;;-57
2019/08/04 07:29:10;;;;;;;7.49;6.71;;;;;;;21.73;56.53;100633.20;;;;-52
2019/08/04 07:32:10;;;;;;;7.55;6.77;;;;;;;21.74;56.43;100633.08;;;;-51
2019/08/04 07:35:09;;;;;;;8.36;6.86;;;;;;;21.75;56.32;100626.90;;;;-51
2019/08/04 07:38:10;;;;;;;7.47;6.77;;;;;;;21.78;56.24;100628.69;;;;-52
2019/08/04 07:41:10;;;;;;;6.81;6.21;;;;;;;21.80;56.13;100631.29;;;;-51
2019/08/04 07:44:10;;;;;;;6.88;6.28;;;;;;;21.81;56.14;100628.06;;;;-57
2019/08/04 07:47:10;;;;;;;6.84;6.23;;;;;;;21.83;56.07;100628.81;;;;-51
2019/08/04 07:50:10;;;;;;;6.81;6.11;;;;;;;21.86;55.89;100629.06;;;;-51
2019/08/04 07:53:10;;;;;;;6.52;5.92;;;;;;;21.88;55.96;100630.85;;;;-57
2019/08/04 07:56:10;;;;;;;9.65;5.91;;;;;;;21.91;55.97;100627.47;;;;-49
2019/08/04 07:59:09;;;;;;;11.67;5.85;;;;;;;21.94;55.95;100630.88;;;;-56
2019/08/04 08:02:10;;;;;;;10.83;5.57;;;;;;;21.95;55.97;100625.42;;;;-49
2019/08/04 08:05:10;;;;;;;6.71;5.55;;;;;;;21.96;55.96;100627.92;;;;-58
2019/08/04 08:08:10;;;;;;;9.01;5.56;;;;;;;21.98;55.96;100632.60;;;;-58
2019/08/04 08:11:10;;;;;;;7.04;5.84;;;;;;;22.00;56.01;100628.14;;;;-51
2019/08/04 08:14:09;;;;;;;5.97;5.27;;;;;;;22.04;55.99;100631.98;;;;-54
2019/08/04 08:17:10;;;;;;;7.70;5.72;;;;;;;22.07;56.03;100630.84;;;;-51
2019/08/04 08:20:10;;;;;;;7.34;5.23;;;;;;;22.10;56.06;100623.63;;;;-57
2019/08/04 08:23:10;;;;;;;6.69;5.57;;;;;;;22.13;56.18;100626.36;;;;-50
2019/08/04 08:26:10;;;;;;;7.13;5.51;;;;;;;22.15;56.16;100626.43;;;;-49
2019/08/04 08:29:10;;;;;;;5.95;5.35;;;;;;;22.18;56.20;100625.53;;;;-49
2019/08/04 08:32:10;;;;;;;6.09;5.40;;;;;;;22.20;56.16;100626.55;;;;-59
2019/08/04 08:35:10;;;;;;;5.93;5.34;;;;;;;22.23;56.28;100624.70;;;;-59
2019/08/04 08:38:10;;;;;;;6.33;5.09;;;;;;;22.25;56.31;100622.66;;;;-59
2019/08/04 08:41:10;;;;;;;7.55;5.33;;;;;;;22.28;56.10;100621.31;;;;-58
2019/08/04 08:44:10;;;;;;;12.09;5.36;;;;;;;22.28;56.15;100622.09;;;;-59
2019/08/04 08:47:10;;;;;;;10.67;5.44;;;;;;;22.30;56.28;100623.27;;;;-61
2019/08/04 08:50:10;;;;;;;5.71;4.97;;;;;;;22.33;56.30;100622.50;;;;-49
2019/08/04 08:53:10;;;;;;;7.78;5.15;;;;;;;22.35;56.25;100619.74;;;;-51
2019/08/04 08:56:10;;;;;;;7.03;5.19;;;;;;;22.37;56.18;100623.45;;;;-50
2019/08/04 08:59:10;;;;;;;7.00;5.36;;;;;;;22.39;56.30;100622.91;;;;-56
2019/08/04 09:02:10;;;;;;;12.21;5.59;;;;;;;22.41;56.18;100620.63;;;;-51
2019/08/04 09:05:10;;;;;;;11.21;5.13;;;;;;;22.40;56.42;100614.64;;;;-50
2019/08/04 09:08:10;;;;;;;7.50;5.19;;;;;;;22.44;56.33;100615.69;;;;-50
2019/08/04 09:11:10;;;;;;;10.01;5.01;;;;;;;22.45;56.23;100617.41;;;;-51
2019/08/04 09:14:10;;;;;;;6.53;4.96;;;;;;;22.47;56.25;100617.77;;;;-57
2019/08/04 09:17:10;;;;;;;8.01;5.05;;;;;;;22.48;56.38;100615.72;;;;-61
2019/08/04 09:20:10;;;;;;;11.07;4.94;;;;;;;22.50;56.32;100618.19;;;;-58
2019/08/04 09:23:10;;;;;;;6.88;4.96;;;;;;;22.51;56.23;100612.16;;;;-59
2019/08/04 09:26:10;;;;;;;7.25;5.22;;;;;;;22.53;56.19;100611.55;;;;-59
2019/08/04 09:29:10;;;;;;;8.11;4.96;;;;;;;22.55;56.29;100608.45;;;;-59
2019/08/04 09:32:09;;;;;;;5.43;4.61;;;;;;;22.56;56.26;100606.23;;;;-60
2019/08/04 09:35:10;;;;;;;7.02;5.19;;;;;;;22.57;56.24;100603.17;;;;-57
2019/08/04 09:38:10;;;;;;;7.93;4.91;;;;;;;22.58;56.25;100604.28;;;;-60
2019/08/04 09:41:10;;;;;;;9.15;5.22;;;;;;;22.60;56.27;100595.94;;;;-51
2019/08/04 09:44:10;;;;;;;9.53;4.71;;;;;;;22.63;56.19;100599.74;;;;-51
2019/08/04 09:47:14;;;;;;;5.59;4.93;;;;;;;22.64;56.23;100592.60;;;;-51
2019/08/04 09:50:10;;;;;;;8.81;5.06;;;;;;;22.66;56.15;100592.84;;;;-51
2019/08/04 09:53:09;;;;;;;6.12;4.94;;;;;;;22.66;56.22;100587.89;;;;-50
2019/08/04 09:56:09;;;;;;;8.65;4.85;;;;;;;22.68;56.23;100589.98;;;;-50
2019/08/04 09:59:10;;;;;;;6.61;4.95;;;;;;;22.69;56.13;100585.03;;;;-50
2019/08/04 10:02:10;;;;;;;7.95;4.69;;;;;;;22.70;56.17;100580.11;;;;-49
2019/08/04 10:05:10;;;;;;;8.29;5.10;;;;;;;22.71;56.12;100578.70;;;;-49
2019/08/04 10:08:10;;;;;;;7.03;4.89;;;;;;;22.71;56.19;100573.81;;;;-49
2019/08/04 10:11:09;;;;;;;5.15;4.59;;;;;;;22.73;56.09;100572.37;;;;-52
2019/08/04 10:14:09;;;;;;;9.18;4.87;;;;;;;22.72;56.21;100569.64;;;;-56
2019/08/04 10:17:10;;;;;;;8.29;4.85;;;;;;;22.73;56.27;100573.38;;;;-53
2019/08/04 10:20:10;;;;;;;7.29;4.50;;;;;;;22.74;56.23;100570.31;;;;-57
2019/08/04 10:23:10;;;;;;;7.93;4.66;;;;;;;22.74;55.95;100565.26;;;;-57
2019/08/04 10:26:10;;;;;;;6.03;4.83;;;;;;;22.74;56.19;100563.03;;;;-56
2019/08/04 10:29:10;;;;;;;6.13;4.60;;;;;;;22.74;55.98;100558.02;;;;-57
2019/08/04 10:32:09;;;;;;;10.74;4.79;;;;;;;22.74;55.96;100556.09;;;;-57
2019/08/04 10:35:09;;;;;;;6.03;4.49;;;;;;;22.74;55.94;100558.25;;;;-56
2019/08/04 10:38:09;;;;;;;7.17;4.67;;;;;;;22.74;55.96;100559.13;;;;-57
2019/08/04 10:41:10;;;;;;;6.29;4.85;;;;;;;22.75;55.88;100554.34;;;;-56
2019/08/04 10:44:10;;;;;;;5.35;4.58;;;;;;;22.76;55.80;100555.02;;;;-57
2019/08/04 10:47:10;;;;;;;5.59;4.86;;;;;;;22.75;55.84;100550.58;;;;-57
2019/08/04 10:50:10;;;;;;;4.83;4.33;;;;;;;22.76;55.75;100549.43;;;;-57
2019/08/04 10:53:09;;;;;;;8.13;4.33;;;;;;;22.76;55.78;100551.99;;;;-57
2019/08/04 10:56:10;;;;;;;5.42;4.46;;;;;;;22.76;55.74;100551.92;;;;-57
2019/08/04 10:59:10;;;;;;;6.35;4.42;;;;;;;22.76;55.78;100547.72;;;;-57
2019/08/04 11:02:10;;;;;;;5.26;4.19;;;;;;;22.76;55.73;100550.30;;;;-57
2019/08/04 11:05:10;;;;;;;7.03;4.74;;;;;;;22.77;55.62;100543.03;;;;-57
2019/08/04 11:08:10;;;;;;;5.79;4.39;;;;;;;22.77;55.60;100536.13;;;;-58
2019/08/04 11:11:09;;;;;;;6.57;4.42;;;;;;;22.77;55.59;100536.56;;;;-57
2019/08/04 11:14:09;;;;;;;5.58;4.29;;;;;;;22.78;55.58;100534.38;;;;-57
2019/08/04 11:17:09;;;;;;;6.03;4.37;;;;;;;22.77;55.62;100531.25;;;;-57
2019/08/04 11:20:09;;;;;;;4.60;4.20;;;;;;;22.77;55.56;100529.93;;;;-57
2019/08/04 11:23:10;;;;;;;7.81;4.29;;;;;;;22.78;55.53;100530.60;;;;-56
2019/08/04 11:26:10;;;;;;;4.66;4.23;;;;;;;22.78;55.52;100526.66;;;;-57
2019/08/04 11:29:09;;;;;;;5.05;4.07;;;;;;;22.79;55.52;100521.61;;;;-57
2019/08/04 11:32:09;;;;;;;4.59;4.17;;;;;;;22.78;55.49;100516.80;;;;-56
2019/08/04 11:35:09;;;;;;;4.19;3.83;;;;;;;22.79;55.48;100519.28;;;;-57
2019/08/04 11:38:09;;;;;;;5.45;4.33;;;;;;;22.79;55.46;100514.23;;;;-57
2019/08/04 11:41:10;;;;;;;4.52;4.01;;;;;;;22.80;55.42;100515.75;;;;-57
2019/08/04 11:44:10;;;;;;;5.20;4.41;;;;;;;22.79;55.45;100514.64;;;;-58
2019/08/04 11:47:10;;;;;;;6.54;4.41;;;;;;;22.79;55.46;100513.80;;;;-60
2019/08/04 11:50:09;;;;;;;5.10;4.04;;;;;;;22.80;55.40;100511.57;;;;-60
2019/08/04 11:53:10;;;;;;;6.31;4.38;;;;;;;22.79;55.41;100509.58;;;;-60
2019/08/04 11:56:09;;;;;;;4.79;4.12;;;;;;;22.81;55.41;100505.51;;;;-57
2019/08/04 11:59:10;;;;;;;4.77;4.15;;;;;;;22.82;55.40;100507.66;;;;-51
2019/08/04 12:02:10;;;;;;;9.97;4.48;;;;;;;22.82;55.47;100500.19;;;;-51
2019/08/04 12:05:10;;;;;;;8.05;4.67;;;;;;;22.83;55.82;100495.67;;;;-59
2019/08/04 12:08:10;;;;;;;9.18;4.70;;;;;;;22.85;55.87;100494.11;;;;-51
2019/08/04 12:11:12;;;;;;;8.63;4.93;;;;;;;22.87;55.81;100491.82;;;;-49
2019/08/04 12:14:09;;;;;;;8.71;4.80;;;;;;;22.89;55.87;100486.90;;;;-57
2019/08/04 12:17:09;;;;;;;6.83;4.45;;;;;;;22.90;55.92;100487.60;;;;-50
2019/08/04 12:20:10;;;;;;;6.95;4.85;;;;;;;22.91;55.90;100485.71;;;;-49
2019/08/04 12:23:10;;;;;;;8.51;5.06;;;;;;;22.93;55.95;100487.19;;;;-52
2019/08/04 12:26:10;;;;;;;7.28;5.27;;;;;;;22.94;56.08;100484.02;;;;-54
2019/08/04 12:29:10;;;;;;;8.05;5.33;;;;;;;22.95;56.00;100484.45;;;;-51
2019/08/04 12:32:10;;;;;;;15.39;8.03;;;;;;;22.95;56.00;100478.83;;;;-50
2019/08/04 12:35:10;;;;;;;11.17;7.15;;;;;;;22.95;56.03;100479.60;;;;-51
2019/08/04 12:38:09;;;;;;;14.33;6.46;;;;;;;22.95;55.97;100477.92;;;;-50
2019/08/04 12:41:09;;;;;;;19.28;7.48;;;;;;;22.96;56.17;100473.06;;;;-54
2019/08/04 12:44:09;;;;;;;15.06;7.33;;;;;;;22.98;56.08;100468.81;;;;-55
2019/08/04 12:47:10;;;;;;;13.21;8.52;;;;;;;23.00;56.09;100467.42;;;;-59
2019/08/04 12:50:10;;;;;;;15.53;8.35;;;;;;;23.02;56.27;100462.97;;;;-57
2019/08/04 12:53:10;;;;;;;12.45;8.20;;;;;;;23.02;56.19;100461.93;;;;-60
2019/08/04 12:56:09;;;;;;;20.45;8.59;;;;;;;23.04;56.31;100459.97;;;;-53
2019/08/04 12:59:10;;;;;;;15.99;7.85;;;;;;;23.05;56.33;100452.52;;;;-54
2019/08/04 13:02:10;;;;;;;14.39;8.57;;;;;;;23.06;56.34;100450.29;;;;-49
2019/08/04 13:05:10;;;;;;;12.06;8.35;;;;;;;23.07;56.17;100442.61;;;;-60
2019/08/04 13:08:10;;;;;;;14.39;8.26;;;;;;;23.07;56.20;100440.01;;;;-48
2019/08/04 13:14:10;;;;;;;14.58;7.62;;;;;;;23.08;56.22;100432.73;;;;-56
2019/08/04 13:17:10;;;;;;;14.83;8.17;;;;;;;23.08;56.26;100427.27;;;;-58
2019/08/04 13:20:09;;;;;;;13.21;8.07;;;;;;;23.09;56.19;100426.66;;;;-51
2019/08/04 13:23:09;;;;;;;12.71;8.24;;;;;;;23.09;56.27;100419.41;;;;-51
2019/08/04 13:26:09;;;;;;;13.25;8.16;;;;;;;23.10;56.20;100418.23;;;;-55
2019/08/04 13:29:10;;;;;;;10.59;8.14;;;;;;;23.10;56.22;100413.34;;;;-50
2019/08/04 13:32:09;;;;;;;12.62;8.39;;;;;;;23.11;56.21;100411.28;;;;-58
2019/08/04 13:35:10;;;;;;;15.41;8.73;;;;;;;23.15;56.55;100410.02;;;;-56
2019/08/04 13:38:10;;;;;;;21.37;8.61;;;;;;;23.15;56.42;100410.13;;;;-56
2019/08/04 13:41:09;;;;;;;19.76;8.76;;;;;;;23.16;56.41;100409.91;;;;-59
2019/08/04 13:44:09;;;;;;;17.14;9.45;;;;;;;23.16;56.27;100404.19;;;;-49
2019/08/04 13:47:10;;;;;;;15.11;8.57;;;;;;;23.17;56.35;100399.56;;;;-48
2019/08/04 13:50:10;;;;;;;19.45;8.94;;;;;;;23.19;56.27;100398.17;;;;-51
2019/08/04 13:53:10;;;;;;;14.45;8.81;;;;;;;23.21;56.26;100397.05;;;;-58
2019/08/04 13:56:10;;;;;;;13.99;9.08;;;;;;;23.21;56.24;100392.67;;;;-52
2019/08/04 13:59:10;;;;;;;16.57;8.83;;;;;;;23.23;56.33;100397.28;;;;-50
2019/08/04 14:02:10;;;;;;;13.99;8.45;;;;;;;23.23;56.28;100392.39;;;;-50
2019/08/04 14:05:10;;;;;;;13.81;8.61;;;;;;;23.23;56.32;100393.00;;;;-48
2019/08/04 14:08:09;;;;;;;16.49;8.60;;;;;;;23.23;56.23;100389.69;;;;-50
2019/08/04 14:11:09;;;;;;;14.30;8.99;;;;;;;23.23;56.13;100387.16;;;;-52
2019/08/04 14:14:10;;;;;;;16.53;8.57;;;;;;;23.23;56.28;100379.92;;;;-57
2019/08/04 14:17:10;;;;;;;17.17;8.69;;;;;;;23.23;56.04;100380.36;;;;-58
2019/08/04 14:20:10;;;;;;;14.79;8.51;;;;;;;23.23;56.10;100373.18;;;;-59
2019/08/04 14:23:10;;;;;;;12.87;8.60;;;;;;;23.22;56.19;100367.86;;;;-50
2019/08/04 14:26:09;;;;;;;15.51;8.41;;;;;;;23.22;56.08;100369.72;;;;-58
2019/08/04 14:29:10;;;;;;;12.05;8.55;;;;;;;23.21;56.05;100364.97;;;;-58
2019/08/04 14:32:10;;;;;;;11.83;8.55;;;;;;;23.21;56.08;100366.32;;;;-56
2019/08/04 14:35:10;;;;;;;15.69;8.29;;;;;;;23.23;56.03;100364.09;;;;-47
2019/08/04 14:38:10;;;;;;;12.91;8.52;;;;;;;23.25;56.03;100361.04;;;;-49
2019/08/04 14:41:13;;;;;;;12.85;8.41;;;;;;;23.25;56.01;100361.27;;;;-51
2019/08/04 14:47:12;;;;;;;13.79;8.37;;;;;;;23.26;55.98;100359.88;;;;-51
2019/08/04 14:50:09;;;;;;;12.62;8.49;;;;;;;23.26;55.96;100353.81;;;;-51
2019/08/04 14:53:09;;;;;;;12.16;8.21;;;;;;;23.27;56.01;100357.45;;;;-50
2019/08/04 14:56:09;;;;;;;14.07;8.60;;;;;;;23.27;56.09;100357.02;;;;-50
2019/08/04 14:59:10;;;;;;;12.89;8.36;;;;;;;23.28;56.06;100352.63;;;;-51
2019/08/04 15:02:09;;;;;;;13.63;8.47;;;;;;;23.28;56.07;100351.78;;;;-47
2019/08/04 15:05:10;;;;;;;12.69;8.52;;;;;;;23.29;56.08;100343.95;;;;-47
2019/08/04 15:08:09;;;;;;;13.45;8.19;;;;;;;23.29;56.04;100343.21;;;;-49
2019/08/04 15:11:09;;;;;;;11.07;8.17;;;;;;;23.31;56.13;100345.28;;;;-50
2019/08/04 15:14:09;;;;;;;11.57;8.23;;;;;;;23.31;55.89;100337.00;;;;-51
2019/08/04 15:17:09;;;;;;;16.45;8.53;;;;;;;23.32;55.97;100337.09;;;;-51
2019/08/04 15:20:09;;;;;;;12.53;8.53;;;;;;;23.31;55.96;100333.80;;;;-51
2019/08/04 15:23:09;;;;;;;14.57;8.21;;;;;;;23.30;55.93;100331.85;;;;-51
2019/08/04 15:26:10;;;;;;;12.73;8.40;;;;;;;23.29;55.85;100329.36;;;;-52
2019/08/04 15:29:10;;;;;;;13.90;8.74;;;;;;;23.30;55.89;100326.73;;;;-50
2019/08/04 15:32:10;;;;;;;12.47;8.10;;;;;;;23.31;55.84;100329.69;;;;-50
2019/08/04 15:35:09;;;;;;;12.62;8.06;;;;;;;23.33;55.79;100328.89;;;;-49
2019/08/04 15:38:09;;;;;;;12.26;8.32;;;;;;;23.33;55.87;100325.77;;;;-47
2019/08/04 15:41:09;;;;;;;12.40;8.14;;;;;;;23.34;55.67;100325.52;;;;-48
2019/08/04 15:44:09;;;;;;;12.21;8.20;;;;;;;23.33;55.74;100320.70;;;;-48
2019/08/04 15:47:10;;;;;;;11.58;8.25;;;;;;;23.33;55.79;100319.63;;;;-48
2019/08/04 15:50:10;;;;;;;11.71;8.13;;;;;;;23.33;55.79;100318.92;;;;-48
2019/08/04 15:53:10;;;;;;;11.69;7.85;;;;;;;23.32;55.72;100317.14;;;;-48
2019/08/04 15:56:09;;;;;;;10.53;7.91;;;;;;;23.31;55.73;100311.05;;;;-49
2019/08/04 15:59:09;;;;;;;10.87;7.61;;;;;;;23.31;55.73;100312.73;;;;-48
2019/08/04 16:02:10;;;;;;;10.07;8.00;;;;;;;23.31;55.76;100310.55;;;;-48
2019/08/04 16:05:10;;;;;;;12.01;7.86;;;;;;;23.31;55.69;100312.56;;;;-48
2019/08/04 16:08:09;;;;;;;9.36;7.67;;;;;;;23.30;55.65;100307.83;;;;-48
2019/08/04 16:11:10;;;;;;;9.43;7.23;;;;;;;23.29;55.67;100310.19;;;;-48
2019/08/04 16:14:10;;;;;;;11.59;7.94;;;;;;;23.29;55.65;100308.16;;;;-48
2019/08/04 16:17:09;;;;;;;10.71;7.42;;;;;;;23.29;55.62;100310.25;;;;-48
2019/08/04 16:20:10;;;;;;;10.68;7.66;;;;;;;23.30;55.61;100309.51;;;;-49
2019/08/04 16:23:09;;;;;;;9.55;7.33;;;;;;;23.28;55.59;100305.51;;;;-48
2019/08/04 16:26:09;;;;;;;10.16;7.42;;;;;;;23.29;55.58;100305.34;;;;-48
2019/08/04 16:29:10;;;;;;;12.65;7.68;;;;;;;23.29;55.61;100298.94;;;;-48
2019/08/04 16:32:10;;;;;;;10.37;7.47;;;;;;;23.28;55.57;100297.83;;;;-48
2019/08/04 16:35:10;;;;;;;11.50;7.43;;;;;;;23.28;55.54;100292.63;;;;-48
2019/08/04 16:38:09;;;;;;;9.04;7.35;;;;;;;23.28;55.53;100286.71;;;;-59
2019/08/04 16:41:09;;;;;;;10.45;7.57;;;;;;;23.28;55.51;100285.72;;;;-59
2019/08/04 16:44:10;;;;;;;12.95;7.47;;;;;;;23.27;55.64;100286.58;;;;-59
2019/08/04 16:47:09;;;;;;;11.05;7.38;;;;;;;23.27;55.75;100284.42;;;;-58
2019/08/04 16:50:10;;;;;;;10.31;7.30;;;;;;;23.29;55.72;100287.74;;;;-58